Data for 04/19/2015

Time Sea-Level Adjusted Pressure Absolute Pressure Temperature Relative Humidity Dew Point   
(mb) (inHg) (mb) (inHg) (C) (F) (%) (C) (F)
00:05 1025 30.27 854 25.22 -0.3 31.5 72 -4.8 23.4
00:10 1025 30.27 854 25.22 0.1 32.3 68 -5 23
00:15 1025 30.27 854 25.22 0.5 32.9 68 -4.8 23.4
00:20 1025 30.27 854 25.22 0.3 32.5 69 -4.8 23.4
00:25 1025 30.27 854 25.22 0 32 70 -4.9 23.2
00:30 1025 30.27 854 25.22 -0.2 31.6 69 -5.2 22.7
00:35 1025 30.27 854 25.22 0.2 32.3 66 -5.4 22.3
00:40 1025 30.27 854 25.22 0.6 33 65 -5.4 22.4
00:45 1025 30.27 854 25.22 0.8 33.5 64 -5.1 22.8
00:50 1025 30.27 854 25.22 0.8 33.4 65 -5 22.9
00:55 1025 30.27 854 25.22 0.6 33.1 65 -5.2 22.6
01:00 1025 30.27 854 25.22 1 33.7 64 -5 23
01:05 1025 30.27 854 25.22 0.8 33.4 65 -5 23.1
01:10 1025 30.27 854 25.22 0.4 32.7 67 -5.1 22.9
01:15 1025 30.27 854 25.22 0.2 32.4 68 -5 23
01:20 1025 30.27 854 25.22 0.1 32.2 69 -5 23.1
01:25 1025 30.27 854 25.22 -0.4 31.4 70 -5.1 22.8
01:30 1025 30.27 854 25.22 -0.7 30.7 71 -5.3 22.4
01:35 1025 30.27 854 25.22 -0.6 31 70 -5.4 22.3
01:40 1025 30.27 854 25.22 -0.5 31.1 70 -5.3 22.4
01:45 1025 30.27 854 25.22 -0.4 31.3 70 -5.2 22.6
01:50 1025 30.27 854 25.22 -0.4 31.2 70 -5.2 22.6
01:55 1025 30.27 854 25.22 -0.4 31.2 71 -5.1 22.8
02:00 1025 30.27 854 25.22 -0.4 31.3 71 -5.1 22.9
02:05 1025 30.27 854 25.22 -0.5 31 71 -5.1 22.8
02:10 1025 30.27 854 25.22 -0.5 31.1 72 -5 22.9
02:15 1025 30.27 854 25.22 -0.5 31.1 71 -5.1 22.9
02:20 1025 30.27 854 25.22 -0.8 30.6 73 -5.1 22.8
02:25 1025 30.27 854 25.22 -0.9 30.5 73 -5.1 22.8
02:30 1025 30.27 854 25.22 -0.9 30.4 73 -5.2 22.6
02:35 1025 30.27 854 25.22 -0.7 30.7 72 -5.2 22.6
02:40 1025 30.27 854 25.22 -0.4 31.2 71 -5.1 22.8
02:45 1025 30.27 854 25.22 -0.3 31.5 70 -5.2 22.7
02:50 1025 30.27 854 25.22 -0 31.9 69 -5.1 22.8
02:55 1025 30.27 854 25.22 0 32 68 -5.1 22.8
03:00 1025 30.27 854 25.22 -0 31.9 69 -5.1 22.7
03:05 1025 30.27 854 25.22 -0.1 31.9 68 -5.3 22.5
03:10 1025 30.27 854 25.22 -0.1 31.8 68 -5.3 22.4
03:15 1025 30.27 854 25.22 -0.1 31.8 68 -5.3 22.4
03:20 1025 30.27 854 25.22 -0.2 31.7 69 -5.2 22.7
03:25 1025 30.27 854 25.22 -0.2 31.7 68 -5.3 22.5
03:30 1025 30.27 854 25.22 -0 32 66 -5.5 22
03:35 1025 30.27 854 25.22 -0.2 31.7 69 -5.2 22.6
03:40 1025 30.27 854 25.22 -0.5 31.1 70 -5.3 22.4
03:45 1025 30.27 854 25.22 -0.7 30.7 70 -5.5 22.1
03:50 1025 30.27 854 25.22 -0.8 30.5 70 -5.6 22
03:55 1025 30.27 854 25.22 -0.8 30.5 71 -5.5 22.2
04:00 1025 30.27 854 25.22 -0.8 30.5 70 -5.5 22
04:05 1025 30.27 854 25.22 -0.8 30.6 71 -5.5 22.2
04:10 1025 30.27 854 25.22 -0.9 30.4 71 -5.5 22.1
04:15 1025 30.27 854 25.22 -1 30.1 72 -5.5 22.1
04:20 1025 30.27 854 25.22 -1.1 30 72 -5.6 21.9
04:25 1025 30.27 854 25.22 -1.1 29.9 71 -5.7 21.8
04:30 1025 30.27 854 25.22 -1.2 29.8 73 -5.5 22
04:35 1025 30.27 854 25.22 -1.4 29.4 73 -5.6 21.9
04:40 1025 30.27 854 25.22 -1.4 29.4 74 -5.6 22
04:45 1024 30.24 854 25.22 -1.5 29.3 73 -5.8 21.6
04:50 1024 30.24 854 25.22 -1.4 29.5 72 -5.8 21.6
04:55 1024 30.24 854 25.22 -1.3 29.7 72 -5.6 21.9
05:00 1024 30.24 854 25.22 -1.3 29.7 72 -5.7 21.7
05:05 1024 30.24 854 25.22 -1.1 30.1 70 -5.8 21.6
05:10 1024 30.24 854 25.22 -0.8 30.5 69 -5.8 21.6
05:15 1024 30.24 854 25.22 -1 30.2 71 -5.7 21.8
05:20 1024 30.24 854 25.22 -1.1 29.9 70 -6 21.2
05:25 1024 30.24 854 25.22 -1.3 29.7 72 -5.7 21.7
05:30 1024 30.24 854 25.22 -1.4 29.5 71 -5.9 21.4
05:35 1024 30.24 854 25.22 -1.4 29.5 71 -6 21.1
05:40 1024 30.24 854 25.22 -1.5 29.3 72 -6 21.2
05:45 1024 30.24 854 25.22 -1.6 29.1 72 -6.1 21.1
05:50 1024 30.24 854 25.22 -1.7 29 72 -6.1 21
05:55 1024 30.24 854 25.22 -1.7 28.9 72 -6.1 21
06:00 1024 30.24 854 25.22 -1.6 29.1 72 -6.1 21.1
06:05 1024 30.24 854 25.22 -1.6 29.1 72 -6 21.2
06:10 1024 30.24 854 25.22 -1.5 29.2 71 -6.2 20.9
06:15 1024 30.24 854 25.22 -1.4 29.5 69 -6.3 20.6
06:20 1024 30.24 854 25.22 -1.3 29.6 69 -6.4 20.5
06:25 1024 30.24 854 25.22 -1.4 29.6 67 -6.6 20.1
06:30 1025 30.27 854 25.22 -1.1 30 66 -6.6 20.2
06:35 1025 30.27 854 25.22 -1 30.2 65 -6.7 19.9
06:40 1025 30.27 854 25.22 -0.9 30.5 65 -6.7 20
06:45 1025 30.27 854 25.22 -0.8 30.6 65 -6.5 20.3
06:50 1025 30.27 854 25.22 -0.9 30.4 66 -6.4 20.4
06:55 1025 30.27 854 25.22 -0.9 30.3 67 -6.3 20.7
07:00 1025 30.27 854 25.22 -0.9 30.5 67 -6.2 20.8
07:05 1025 30.27 854 25.22 -0.8 30.7 67 -6.1 20.9
07:10 1025 30.27 854 25.22 -0.5 31.1 68 -5.8 21.6
07:15 1024 30.24 854 25.22 0.1 32.1 65 -5.7 21.7
07:20 1024 30.24 854 25.22 0.8 33.4 63 -5.5 22.2
07:25 1024 30.24 854 25.22 1 33.7 64 -5 22.9
07:30 1024 30.24 854 25.22 1.3 34.4 62 -5.3 22.5
07:35 1024 30.24 854 25.22 1.6 34.9 62 -4.9 23.1
07:40 1024 30.24 854 25.22 1.7 35 61 -5 23.1
07:45 1024 30.24 854 25.22 2 35.6 61 -4.6 23.6
07:50 1024 30.24 854 25.22 2 35.6 61 -4.8 23.4
07:55 1024 30.24 853 25.19 2.1 35.8 58 -5.3 22.4
08:00 1024 30.24 853 25.19 2.4 36.3 58 -5.1 22.8
08:05 1024 30.24 853 25.19 2.6 36.8 56 -5.3 22.5
08:10 1024 30.24 853 25.19 2.7 36.8 56 -5.2 22.6
08:15 1024 30.24 853 25.19 2.9 37.2 55 -5.4 22.3
08:20 1024 30.24 853 25.19 3.5 38.4 53 -5.1 22.7
08:25 1024 30.24 853 25.19 3.9 39 51 -5.3 22.4
08:30 1024 30.24 853 25.19 4.1 39.3 51 -5.1 22.8
08:35 1024 30.24 853 25.19 4 39.1 51 -5.2 22.7
08:40 1024 30.24 853 25.19 4.1 39.4 52 -4.9 23.1
08:45 1024 30.24 853 25.19 4.5 40.1 52 -4.6 23.7
08:50 1024 30.24 853 25.19 4.8 40.6 49 -4.9 23.1
08:55 1024 30.24 853 25.19 5 41.1 48 -5 22.9
09:00 1024 30.24 853 25.19 4.8 40.6 51 -4.4 24
09:05 1024 30.24 853 25.19 4.4 39.8 50 -5.2 22.6
09:10 1024 30.24 853 25.19 5.2 41.4 48 -4.8 23.4
09:15 1024 30.24 853 25.19 5.4 41.7 48 -4.9 23.2
09:20 1024 30.24 853 25.19 5.6 42 48 -4.6 23.7
09:25 1023 30.21 853 25.19 4.8 40.7 50 -4.7 23.5
09:30 1023 30.21 853 25.19 5.2 41.4 47 -5.2 22.7
09:35 1023 30.21 853 25.19 6.3 43.3 46 -4.4 24.1
09:40 1023 30.21 852 25.16 6.2 43.2 45 -4.7 23.5
09:45 1023 30.21 852 25.16 5.8 42.4 44 -5.4 22.2
09:50 1023 30.21 852 25.16 6.9 44.4 41 -5.5 22
09:55 1023 30.21 852 25.16 6.8 44.2 43 -5 23
10:00 1023 30.21 852 25.16 6.3 43.4 42 -5.7 21.8
10:05 1023 30.21 852 25.16 7.4 45.2 40 -5.3 22.5
10:10 1023 30.21 852 25.16 8 46.4 36 -6.3 20.7
10:15 1023 30.21 852 25.16 8.5 47.2 34 -6.3 20.6
10:20 1023 30.21 852 25.16 7.5 45.5 37 -6.1 21
10:25 1023 30.21 852 25.16 7.8 46 35 -6.9 19.6
10:30 1023 30.21 852 25.16 8.4 47.1 32 -7.2 19.1
10:35 1023 30.21 852 25.16 8.6 47.4 31 -7.6 18.2
10:40 1023 30.21 852 25.16 7.6 45.8 33 -7.5 18.4
10:45 1023 30.21 852 25.16 7.6 45.6 33 -7.8 18
10:50 1023 30.21 852 25.16 7.3 45.2 36 -7 19.5
10:55 1022 30.18 852 25.16 7.7 45.9 32 -7.9 17.7
11:00 1022 30.18 852 25.16 8.7 47.6 32 -7.2 19.1
11:05 1022 30.18 852 25.16 8.9 48 31 -7.3 18.9
11:10 1022 30.18 851 25.13 8.9 48.1 32 -6.8 19.8
11:15 1022 30.18 851 25.13 8.8 47.8 32 -7.1 19.2
11:20 1022 30.18 851 25.13 8.3 46.9 32 -7.6 18.3
11:25 1022 30.18 851 25.13 8.9 48.1 31 -7.2 19
11:30 1022 30.18 851 25.13 9.7 49.4 30 -7.2 19.1
11:35 1022 30.18 851 25.13 9.2 48.5 32 -6.5 20.3
11:40 1022 30.18 851 25.13 9.6 49.3 29 -7.4 18.8
11:45 1022 30.18 851 25.13 9.7 49.5 32 -6.4 20.6
11:50 1022 30.18 851 25.13 8.3 46.9 33 -7.1 19.2
11:55 1022 30.18 851 25.13 8.5 47.2 31 -7.7 18.2
12:00 1022 30.18 851 25.13 8.2 46.8 33 -7.3 18.9
12:05 1021 30.15 851 25.13 8.8 47.8 31 -7.5 18.4
12:10 1021 30.15 851 25.13 9.8 49.7 28 -8 17.5
12:15 1021 30.15 851 25.13 10.4 50.6 27 -7.6 18.3
12:20 1021 30.15 851 25.13 10.4 50.8 27 -7.7 18.1
12:25 1021 30.15 850 25.1 10.9 51.5 27 -7.6 18.4
12:30 1021 30.15 850 25.1 11.1 51.9 27 -7 19.3
12:35 1021 30.15 850 25.1 11.5 52.7 26 -7.2 19.1
12:40 1021 30.15 850 25.1 11.6 52.8 27 -7 19.4
12:45 1021 30.15 850 25.1 11.4 52.4 27 -7.1 19.2
12:50 1021 30.15 850 25.1 11.3 52.4 28 -6.7 20
12:55 1021 30.15 850 25.1 10.6 51.1 28 -7 19.5
13:00 1021 30.15 850 25.1 11.6 53 26 -7 19.3
13:05 1021 30.15 850 25.1 11.8 53.3 26 -7.2 19
13:10 1021 30.15 850 25.1 11.3 52.3 26 -7.5 18.5
13:15 1021 30.15 850 25.1 11.1 52 27 -7.1 19.3
13:20 1021 30.15 850 25.1 11.3 52.3 27 -7 19.4
13:25 1021 30.15 850 25.1 11.7 53.1 26 -7 19.4
13:30 1021 30.15 850 25.1 11.2 52.1 26 -7.4 18.7
13:35 1021 30.15 850 25.1 11.3 52.3 26 -7.3 18.9
13:40 1020 30.12 850 25.1 11.9 53.3 26 -6.9 19.5
13:45 1020 30.12 850 25.1 11.9 53.4 25 -7.4 18.7
13:50 1020 30.12 850 25.1 11.8 53.2 25 -7.6 18.3
13:55 1020 30.12 850 25.1 11.6 52.9 26 -7.3 18.9
14:00 1020 30.12 850 25.1 11.5 52.7 26 -7.5 18.4
14:05 1020 30.12 850 25.1 11.2 52.2 25 -8 17.6
14:10 1020 30.12 849 25.07 11.1 52 24 -8.4 16.8
14:15 1020 30.12 849 25.07 10.7 51.2 26 -8.2 17.3
14:20 1020 30.12 849 25.07 9.8 49.6 26 -9 15.7
14:25 1020 30.12 849 25.07 10.1 50.2 25 -8.8 16.1
14:30 1020 30.12 849 25.07 10.8 51.4 25 -8.2 17.2
14:35 1020 30.12 849 25.07 10.9 51.7 25 -8.1 17.4
14:40 1020 30.12 849 25.07 10.9 51.6 26 -8.1 17.5
14:45 1020 30.12 849 25.07 9.9 49.9 27 -8 17.6
14:50 1020 30.12 849 25.07 10.2 50.4 26 -8.3 17.1
14:55 1020 30.12 849 25.07 10.6 51.1 27 -7.8 17.9
15:00 1020 30.12 849 25.07 10.3 50.5 27 -7.8 17.9
15:05 1020 30.12 849 25.07 10.6 51.1 27 -7.8 17.9
15:10 1020 30.12 849 25.07 10.8 51.4 27 -7.6 18.4
15:15 1020 30.12 849 25.07 10.3 50.5 27 -8 17.6
15:20 1020 30.12 849 25.07 10.7 51.2 26 -8 17.6
15:25 1020 30.12 849 25.07 10.6 51.1 27 -7.6 18.4
15:30 1020 30.12 849 25.07 10.7 51.2 27 -7.7 18.1
15:35 1020 30.12 849 25.07 10.7 51.2 27 -7.7 18.2
15:40 1019 30.09 849 25.07 10.8 51.5 26 -7.8 18
15:45 1019 30.09 849 25.07 10.9 51.6 27 -7.5 18.5
15:50 1019 30.09 849 25.07 10.6 51 27 -7.8 17.9
15:55 1019 30.09 849 25.07 11.1 51.9 26 -7.5 18.5
16:00 1019 30.09 849 25.07 10.8 51.5 27 -7.6 18.4
16:05 1019 30.09 848 25.04 10.9 51.5 28 -7 19.4
16:10 1019 30.09 848 25.04 10.1 50.2 28 -7.4 18.6
16:15 1019 30.09 848 25.04 10.5 50.9 29 -6.9 19.6
16:20 1019 30.09 848 25.04 10.5 50.9 28 -7.3 18.9
16:25 1019 30.09 848 25.04 10.2 50.3 29 -6.8 19.7
16:30 1019 30.09 848 25.04 9.9 49.7 30 -7 19.4
16:35 1019 30.09 848 25.04 10.2 50.3 29 -6.9 19.5
16:40 1019 30.09 848 25.04 10.5 50.9 29 -6.9 19.7
16:45 1019 30.09 848 25.04 10.7 51.2 29 -6.7 19.9
16:50 1019 30.09 848 25.04 10.8 51.5 29 -6.6 20.1
16:55 1019 30.09 848 25.04 10.9 51.6 29 -6.6 20.1
17:00 1019 30.09 848 25.04 11 51.8 28 -6.6 20.2
17:05 1019 30.09 848 25.04 11.1 52 28 -6.9 19.5
17:10 1019 30.09 848 25.04 10.5 50.9 29 -7 19.5
17:15 1019 30.09 848 25.04 11.2 52.2 28 -6.7 19.9
17:20 1019 30.09 848 25.04 11.9 53.3 27 -6.6 20.2
17:25 1019 30.09 848 25.04 11.4 52.4 28 -6.6 20.1
17:30 1019 30.09 848 25.04 11.5 52.7 28 -6.3 20.7
17:35 1019 30.09 848 25.04 11.1 52.1 30 -5.9 21.4
17:40 1019 30.09 848 25.04 10.8 51.4 30 -6.1 21
17:45 1019 30.09 848 25.04 10.8 51.5 29 -6.3 20.7
17:50 1019 30.09 848 25.04 11 51.8 29 -6.4 20.4
17:55 1019 30.09 848 25.04 11.2 52.1 29 -6 21.2
18:00 1019 30.09 848 25.04 11 51.7 31 -5.6 21.9
18:05 1019 30.09 848 25.04 10.3 50.5 32 -5.9 21.5
18:10 1019 30.09 848 25.04 10.2 50.3 33 -5.5 22.1
18:15 1019 30.09 848 25.04 9.6 49.3 33 -5.8 21.6
18:20 1019 30.09 848 25.04 9.3 48.8 34 -5.7 21.7
18:25 1019 30.09 848 25.04 9.2 48.6 34 -5.9 21.5
18:30 1019 30.09 848 25.04 9.1 48.5 35 -5.6 21.8
18:35 1019 30.09 848 25.04 9 48.3 35 -5.6 21.8
18:40 1019 30.09 848 25.04 8.9 47.9 36 -5.5 22.2
18:45 1019 30.09 848 25.04 8.7 47.7 37 -5.3 22.4
18:50 1019 30.09 848 25.04 8.6 47.6 37 -5.2 22.6
18:55 1019 30.09 848 25.04 8.6 47.4 37 -5.2 22.6
19:00 1019 30.09 848 25.04 8.5 47.3 38 -5.1 22.8
19:05 1019 30.09 848 25.04 8.2 46.7 38 -5.1 22.8
19:10 1019 30.09 848 25.04 7.9 46.2 40 -4.9 23.2
19:15 1019 30.09 848 25.04 7.6 45.7 41 -4.9 23.2
19:20 1019 30.09 848 25.04 7.4 45.4 41 -4.9 23.2
19:25 1019 30.09 848 25.04 7.3 45.1 41 -5 23
19:30 1019 30.09 848 25.04 7.2 44.9 41 -5.1 22.9
19:35 1019 30.09 848 25.04 7.1 44.8 42 -5.1 22.9
19:40 1019 30.09 848 25.04 7 44.7 42 -5.1 22.8
19:45 1019 30.09 848 25.04 6.9 44.5 42 -5.1 22.9
19:50 1019 30.09 848 25.04 6.9 44.4 43 -4.9 23.2
19:55 1019 30.09 848 25.04 6.6 43.9 43 -5 23
20:00 1019 30.09 848 25.04 6.6 43.8 44 -4.9 23.2
20:05 1019 30.09 848 25.04 6.5 43.8 43 -5 23
20:10 1019 30.09 848 25.04 6.5 43.7 44 -5 23
20:15 1019 30.09 848 25.04 6.4 43.5 45 -4.8 23.4
20:20 1019 30.09 848 25.04 6.2 43.2 46 -4.7 23.6
20:25 1019 30.09 848 25.04 6.1 42.9 46 -4.7 23.5
20:30 1019 30.09 848 25.04 5.9 42.6 47 -4.5 23.9
20:35 1019 30.09 848 25.04 5.9 42.6 47 -4.6 23.7
20:40 1019 30.09 848 25.04 5.9 42.6 47 -4.6 23.8
20:45 1019 30.09 848 25.04 5.9 42.6 47 -4.4 24
20:50 1019 30.09 848 25.04 5.8 42.5 48 -4.3 24.3
20:55 1019 30.09 848 25.04 5.7 42.2 49 -4.3 24.2
21:00 1019 30.09 848 25.04 5.6 42 48 -4.4 24
21:05 1019 30.09 848 25.04 5.4 41.8 50 -4.2 24.4
21:10 1019 30.09 848 25.04 5.3 41.5 50 -4.3 24.3
21:15 1019 30.09 848 25.04 5.2 41.4 51 -4 24.8
21:20 1019 30.09 848 25.04 5.2 41.3 51 -4.2 24.4
21:25 1019 30.09 848 25.04 5.3 41.5 50 -4.4 24.2
21:30 1019 30.09 848 25.04 5.3 41.5 51 -4.2 24.5
21:35 1019 30.09 848 25.04 5.2 41.4 50 -4.2 24.4
21:40 1019 30.09 848 25.04 5.2 41.3 51 -4.1 24.7
21:45 1019 30.09 848 25.04 5 40.9 52 -4 24.8
21:50 1019 30.09 848 25.04 4.9 40.8 52 -4 24.7
21:55 1019 30.09 848 25.04 4.9 40.8 52 -4 24.8
22:00 1019 30.09 848 25.04 4.8 40.7 53 -4 24.8
22:05 1019 30.09 848 25.04 4.7 40.5 53 -3.9 24.9
22:10 1019 30.09 848 25.04 4.7 40.4 53 -4 24.9
22:15 1019 30.09 848 25.04 4.6 40.4 53 -4.1 24.7
22:20 1019 30.09 848 25.04 4.6 40.4 50 -4.8 23.4
22:25 1019 30.09 848 25.04 4.6 40.3 50 -4.9 23.2
22:30 1019 30.09 848 25.04 4.5 40.1 51 -4.8 23.4
22:35 1019 30.09 848 25.04 4.3 39.7 52 -4.8 23.3
22:40 1019 30.09 848 25.04 4.1 39.4 51 -5.1 22.9
22:45 1019 30.09 848 25.04 4 39.2 51 -5.2 22.7
22:50 1019 30.09 848 25.04 3.9 39 51 -5.4 22.3
22:55 1019 30.09 848 25.04 3.8 38.8 51 -5.6 22
23:00 1019 30.09 848 25.04 3.7 38.7 51 -5.6 22
23:05 1019 30.09 848 25.04 3.6 38.5 50 -5.9 21.4
23:10 1019 30.09 848 25.04 3.6 38.6 49 -6 21.2
23:15 1019 30.09 848 25.04 3.6 38.4 50 -5.9 21.4
23:20 1019 30.09 848 25.04 3.4 38.2 50 -6.1 21.1
23:25 1019 30.09 848 25.04 3.4 38.2 49 -6.3 20.7
23:30 1019 30.09 848 25.04 3.4 38.1 49 -6.4 20.4
23:35 1019 30.09 848 25.04 3.4 38.1 48 -6.5 20.3
23:40 1019 30.09 848 25.04 3.5 38.3 48 -6.6 20.2
23:45 1019 30.09 848 25.04 3.5 38.2 48 -6.6 20.1
23:50 1019 30.09 848 25.04 3.4 38.1 48 -6.6 20.1
23:55 1019 30.09 848 25.04 3.3 38 48 -6.7 20
24:00 1019 30.09 848 25.04 3.3 38 48 -6.7 20